sensor_id;sensor_type;location;lat;lon;timestamp;pressure;altitude;pressure_sealevel;temperature;humidity
38253;BME280;24785;52.372;20.672;2023-04-30T00:08:31;100465.25;;;11.06;100.00
38253;BME280;24785;52.372;20.672;2023-04-30T00:18:32;100471.41;;;11.07;100.00
38253;BME280;24785;52.372;20.672;2023-04-30T00:28:33;100479.22;;;10.98;100.00
38253;BME280;24785;52.372;20.672;2023-04-30T00:38:34;100486.19;;;10.99;100.00
38253;BME280;24785;52.372;20.672;2023-04-30T00:48:35;100480.81;;;10.99;100.00
38253;BME280;24785;52.372;20.672;2023-04-30T00:58:36;100489.16;;;10.92;100.00
38253;BME280;24785;52.372;20.672;2023-04-30T01:08:37;100494.34;;;11.28;100.00
38253;BME280;24785;52.372;20.672;2023-04-30T01:18:47;100499.53;;;11.14;100.00
38253;BME280;24785;52.372;20.672;2023-04-30T01:28:49;100501.13;;;11.15;100.00
38253;BME280;24785;52.372;20.672;2023-04-30T01:59:51;100531.38;;;11.31;100.00
38253;BME280;24785;52.372;20.672;2023-04-30T02:09:52;100541.63;;;11.19;100.00
38253;BME280;24785;52.372;20.672;2023-04-30T02:19:53;100552.66;;;11.07;100.00
38253;BME280;24785;52.372;20.672;2023-04-30T02:29:54;100580.06;;;10.84;100.00
38253;BME280;24785;52.372;20.672;2023-04-30T02:39:55;100589.75;;;10.59;100.00
38253;BME280;24785;52.372;20.672;2023-04-30T02:49:56;100604.81;;;9.57;100.00
38253;BME280;24785;52.372;20.672;2023-04-30T02:59:57;100627.38;;;8.82;100.00
38253;BME280;24785;52.372;20.672;2023-04-30T03:09:58;100643.28;;;8.35;100.00
38253;BME280;24785;52.372;20.672;2023-04-30T03:19:59;100636.00;;;8.30;100.00
38253;BME280;24785;52.372;20.672;2023-04-30T03:29:59;100653.19;;;8.39;100.00
38253;BME280;24785;52.372;20.672;2023-04-30T03:40:00;100682.75;;;8.55;100.00
38253;BME280;24785;52.372;20.672;2023-04-30T03:50:02;100685.53;;;8.70;100.00
38253;BME280;24785;52.372;20.672;2023-04-30T04:00:04;100700.38;;;8.88;100.00
38253;BME280;24785;52.372;20.672;2023-04-30T04:10:09;100718.81;;;8.89;100.00
38253;BME280;24785;52.372;20.672;2023-04-30T04:20:10;100729.03;;;8.97;100.00
38253;BME280;24785;52.372;20.672;2023-04-30T04:30:12;100748.41;;;9.09;100.00
38253;BME280;24785;52.372;20.672;2023-04-30T04:40:13;100765.59;;;9.19;100.00
38253;BME280;24785;52.372;20.672;2023-04-30T04:50:14;100778.84;;;9.40;100.00
38253;BME280;24785;52.372;20.672;2023-04-30T05:00:15;100791.97;;;9.42;100.00
38253;BME280;24785;52.372;20.672;2023-04-30T05:10:17;100803.94;;;9.34;100.00
38253;BME280;24785;52.372;20.672;2023-04-30T05:20:18;100824.88;;;9.10;100.00
38253;BME280;24785;52.372;20.672;2023-04-30T05:30:19;100840.78;;;9.27;100.00
38253;BME280;24785;52.372;20.672;2023-04-30T05:40:19;100854.72;;;9.29;100.00
38253;BME280;24785;52.372;20.672;2023-04-30T05:50:20;100865.75;;;9.06;100.00
38253;BME280;24785;52.372;20.672;2023-04-30T06:00:21;100877.81;;;9.40;99.83
38253;BME280;24785;52.372;20.672;2023-04-30T06:10:22;100875.53;;;9.91;89.17
38253;BME280;24785;52.372;20.672;2023-04-30T06:20:23;100885.31;;;10.13;83.26
38253;BME280;24785;52.372;20.672;2023-04-30T06:30:27;100887.53;;;10.21;82.72
38253;BME280;24785;52.372;20.672;2023-04-30T06:40:30;100890.22;;;10.21;83.20
38253;BME280;24785;52.372;20.672;2023-04-30T06:50:30;100893.38;;;10.18;76.34
38253;BME280;24785;52.372;20.672;2023-04-30T07:00:31;100887.22;;;10.17;72.79
38253;BME280;24785;52.372;20.672;2023-04-30T07:10:32;100898.44;;;10.09;69.68
38253;BME280;24785;52.372;20.672;2023-04-30T07:20:33;100897.50;;;10.30;66.52
38253;BME280;24785;52.372;20.672;2023-04-30T07:30:34;100913.22;;;10.64;68.13
38253;BME280;24785;52.372;20.672;2023-04-30T07:40:35;100928.19;;;10.55;65.79
38253;BME280;24785;52.372;20.672;2023-04-30T07:50:36;100927.38;;;10.12;60.32
38253;BME280;24785;52.372;20.672;2023-04-30T08:00:37;100938.00;;;10.39;57.42
38253;BME280;24785;52.372;20.672;2023-04-30T08:10:38;100945.28;;;10.44;57.81
38253;BME280;24785;52.372;20.672;2023-04-30T08:20:39;100954.00;;;10.29;59.70
38253;BME280;24785;52.372;20.672;2023-04-30T08:30:40;100953.69;;;10.67;57.41
38253;BME280;24785;52.372;20.672;2023-04-30T08:40:47;100962.03;;;10.71;55.78
38253;BME280;24785;52.372;20.672;2023-04-30T08:50:51;100956.31;;;10.52;54.33
38253;BME280;24785;52.372;20.672;2023-04-30T09:00:52;100954.38;;;11.00;51.61
38253;BME280;24785;52.372;20.672;2023-04-30T09:10:53;100970.78;;;11.14;51.23
38253;BME280;24785;52.372;20.672;2023-04-30T09:30:58;100972.78;;;11.69;49.84
38253;BME280;24785;52.372;20.672;2023-04-30T09:41:00;100984.00;;;11.35;50.69
38253;BME280;24785;52.372;20.672;2023-04-30T09:51:02;100992.63;;;11.68;49.79
38253;BME280;24785;52.372;20.672;2023-04-30T10:01:07;100977.94;;;11.96;50.77
38253;BME280;24785;52.372;20.672;2023-04-30T10:11:14;100973.06;;;11.78;46.55
38253;BME280;24785;52.372;20.672;2023-04-30T10:21:17;100983.00;;;12.23;50.26
38253;BME280;24785;52.372;20.672;2023-04-30T10:31:21;100974.66;;;12.29;47.46
38253;BME280;24785;52.372;20.672;2023-04-30T10:41:22;100989.44;;;12.27;48.90
38253;BME280;24785;52.372;20.672;2023-04-30T11:01:57;100976.53;;;12.29;47.64
38253;BME280;24785;52.372;20.672;2023-04-30T11:12:03;100981.94;;;12.39;48.06
38253;BME280;24785;52.372;20.672;2023-04-30T11:32:06;100975.44;;;12.55;46.05
38253;BME280;24785;52.372;20.672;2023-04-30T11:42:07;100970.22;;;12.89;44.45
38253;BME280;24785;52.372;20.672;2023-04-30T11:52:08;100983.34;;;13.01;43.91
38253;BME280;24785;52.372;20.672;2023-04-30T12:02:13;100982.47;;;13.26;42.26
38253;BME280;24785;52.372;20.672;2023-04-30T12:12:35;100997.00;;;13.20;44.78
38253;BME280;24785;52.372;20.672;2023-04-30T12:22:36;101001.31;;;13.16;42.37
38253;BME280;24785;52.372;20.672;2023-04-30T12:32:43;100997.97;;;13.44;42.63
38253;BME280;24785;52.372;20.672;2023-04-30T12:42:44;100988.28;;;13.43;40.31
38253;BME280;24785;52.372;20.672;2023-04-30T12:52:46;100978.81;;;13.90;39.99
38253;BME280;24785;52.372;20.672;2023-04-30T13:02:47;100981.19;;;13.97;39.56
38253;BME280;24785;52.372;20.672;2023-04-30T13:12:52;100970.94;;;14.28;39.94
38253;BME280;24785;52.372;20.672;2023-04-30T13:22:53;100964.22;;;14.25;36.80
38253;BME280;24785;52.372;20.672;2023-04-30T13:32:54;100970.81;;;14.09;37.74
38253;BME280;24785;52.372;20.672;2023-04-30T13:42:55;100952.34;;;13.97;36.46
38253;BME280;24785;52.372;20.672;2023-04-30T13:52:55;100964.53;;;14.18;36.71
38253;BME280;24785;52.372;20.672;2023-04-30T14:02:58;100952.25;;;14.07;37.04
38253;BME280;24785;52.372;20.672;2023-04-30T14:12:59;100957.94;;;14.35;37.54
38253;BME280;24785;52.372;20.672;2023-04-30T14:23:00;100959.59;;;14.31;36.08
38253;BME280;24785;52.372;20.672;2023-04-30T14:33:01;100975.31;;;14.18;36.80
38253;BME280;24785;52.372;20.672;2023-04-30T14:43:02;100965.75;;;14.60;36.66
38253;BME280;24785;52.372;20.672;2023-04-30T14:53:04;100969.69;;;14.15;36.28
38253;BME280;24785;52.372;20.672;2023-04-30T15:03:05;100981.63;;;14.38;36.80
38253;BME280;24785;52.372;20.672;2023-04-30T15:13:05;100979.16;;;14.41;36.44
38253;BME280;24785;52.372;20.672;2023-04-30T15:23:06;100983.34;;;14.29;35.28
38253;BME280;24785;52.372;20.672;2023-04-30T15:33:07;100984.81;;;14.45;35.46
38253;BME280;24785;52.372;20.672;2023-04-30T15:43:08;100987.50;;;16.24;33.98
38253;BME280;24785;52.372;20.672;2023-04-30T15:53:09;100986.44;;;18.47;28.64
38253;BME280;24785;52.372;20.672;2023-04-30T16:03:10;100971.34;;;16.93;30.58
38253;BME280;24785;52.372;20.672;2023-04-30T16:13:11;100985.31;;;15.19;34.01
38253;BME280;24785;52.372;20.672;2023-04-30T16:23:13;100983.78;;;14.36;37.35
38253;BME280;24785;52.372;20.672;2023-04-30T16:33:15;100996.66;;;13.81;36.57
38253;BME280;24785;52.372;20.672;2023-04-30T16:43:16;101002.00;;;13.47;36.85
38253;BME280;24785;52.372;20.672;2023-04-30T16:53:17;100997.50;;;13.32;37.07
38253;BME280;24785;52.372;20.672;2023-04-30T17:03:18;101013.22;;;13.00;38.26
38253;BME280;24785;52.372;20.672;2023-04-30T17:13:18;101013.81;;;12.76;39.36
38253;BME280;24785;52.372;20.672;2023-04-30T17:23:19;101023.34;;;12.33;41.67
38253;BME280;24785;52.372;20.672;2023-04-30T17:33:20;101046.16;;;11.85;43.77
38253;BME280;24785;52.372;20.672;2023-04-30T17:43:21;101050.28;;;11.40;44.38
38253;BME280;24785;52.372;20.672;2023-04-30T17:53:22;101071.00;;;10.92;46.24
38253;BME280;24785;52.372;20.672;2023-04-30T18:03:23;101077.13;;;10.46;47.80
38253;BME280;24785;52.372;20.672;2023-04-30T18:13:25;101070.22;;;9.96;49.47
38253;BME280;24785;52.372;20.672;2023-04-30T18:23:26;101092.72;;;9.07;53.35
38253;BME280;24785;52.372;20.672;2023-04-30T18:33:27;101115.47;;;8.26;57.59
38253;BME280;24785;52.372;20.672;2023-04-30T18:43:28;101128.78;;;7.41;61.08
38253;BME280;24785;52.372;20.672;2023-04-30T18:53:29;101129.78;;;7.11;62.81
38253;BME280;24785;52.372;20.672;2023-04-30T19:03:30;101138.25;;;6.02;67.72
38253;BME280;24785;52.372;20.672;2023-04-30T19:13:32;101142.50;;;5.54;71.11
38253;BME280;24785;52.372;20.672;2023-04-30T19:23:33;101168.34;;;5.29;78.65
38253;BME280;24785;52.372;20.672;2023-04-30T19:33:35;101165.78;;;4.97;83.78
38253;BME280;24785;52.372;20.672;2023-04-30T19:43:37;101173.19;;;4.64;88.79
38253;BME280;24785;52.372;20.672;2023-04-30T19:53:38;101168.91;;;4.38;91.99
38253;BME280;24785;52.372;20.672;2023-04-30T20:03:40;101172.28;;;4.14;96.48
38253;BME280;24785;52.372;20.672;2023-04-30T20:13:41;101180.22;;;3.82;100.00
38253;BME280;24785;52.372;20.672;2023-04-30T20:23:42;101192.75;;;3.48;100.00
38253;BME280;24785;52.372;20.672;2023-04-30T20:33:43;101189.13;;;3.16;100.00
38253;BME280;24785;52.372;20.672;2023-04-30T20:43:43;101192.63;;;3.04;100.00
38253;BME280;24785;52.372;20.672;2023-04-30T20:53:44;101193.84;;;2.88;100.00
38253;BME280;24785;52.372;20.672;2023-04-30T21:03:45;101208.06;;;2.80;100.00
38253;BME280;24785;52.372;20.672;2023-04-30T21:13:46;101221.06;;;2.42;100.00
38253;BME280;24785;52.372;20.672;2023-04-30T21:23:48;101244.47;;;1.91;100.00
38253;BME280;24785;52.372;20.672;2023-04-30T21:33:49;101264.66;;;2.05;100.00
38253;BME280;24785;52.372;20.672;2023-04-30T21:43:50;101264.84;;;1.97;100.00
38253;BME280;24785;52.372;20.672;2023-04-30T21:53:51;101284.63;;;2.14;100.00
38253;BME280;24785;52.372;20.672;2023-04-30T22:03:52;101282.00;;;2.21;100.00
38253;BME280;24785;52.372;20.672;2023-04-30T22:13:54;101309.63;;;2.05;100.00
38253;BME280;24785;52.372;20.672;2023-04-30T22:23:55;101310.41;;;1.99;100.00
38253;BME280;24785;52.372;20.672;2023-04-30T22:33:58;101325.84;;;1.96;100.00
38253;BME280;24785;52.372;20.672;2023-04-30T22:43:59;101331.38;;;1.73;100.00
38253;BME280;24785;52.372;20.672;2023-04-30T22:54:00;101327.78;;;1.52;100.00
38253;BME280;24785;52.372;20.672;2023-04-30T23:04:02;101332.47;;;1.57;100.00
38253;BME280;24785;52.372;20.672;2023-04-30T23:14:04;101335.03;;;2.06;100.00
38253;BME280;24785;52.372;20.672;2023-04-30T23:24:05;101352.66;;;1.65;100.00
38253;BME280;24785;52.372;20.672;2023-04-30T23:34:06;101343.97;;;1.21;100.00
38253;BME280;24785;52.372;20.672;2023-04-30T23:44:07;101342.06;;;1.15;100.00
38253;BME280;24785;52.372;20.672;2023-04-30T23:54:08;101350.50;;;1.04;100.00
